Time;durP1;ratioP1;P1;durP2;ratioP2;P2;SDS_P1;SDS_P2;PMS_P1;PMS_P2;Temp;Humidity;BMP_temperature;BMP_pressure;BME280_temperature;BME280_humidity;BME280_pressure;Samples;Min_cycle;Max_cycle;Signal;HPM_P1;HPM_P2
2021/07/26 00:01:25;;;;;;;0.10;0.10;;;;;;;15.29;70.66;100312.19;4907749;29;20051;-83
2021/07/26 00:03:52;;;;;;;0.20;0.20;;;;;;;15.27;70.71;100313.38;4923172;29;20028;-85
2021/07/26 00:06:18;;;;;;;0.10;0.10;;;;;;;15.25;70.67;100310.81;4922425;29;20043;-83
2021/07/26 00:08:44;;;;;;;0.10;0.10;;;;;;;15.24;70.50;100316.41;4953817;29;20055;-84
2021/07/26 00:11:11;;;;;;;0.10;0.10;;;;;;;15.16;71.00;100312.66;4938976;29;20067;-85
2021/07/26 00:13:40;;;;;;;0.10;0.10;;;;;;;15.15;71.01;100315.56;4970214;28;20035;-83
2021/07/26 00:16:08;;;;;;;0.10;0.10;;;;;;;15.08;71.09;100319.94;4935537;29;20098;-85
2021/07/26 00:18:34;;;;;;;0.20;0.20;;;;;;;15.01;71.76;100314.31;4953800;29;20068;-86
2021/07/26 00:21:02;;;;;;;0.10;0.10;;;;;;;14.96;72.21;100327.56;4936532;29;20044;-85
2021/07/26 00:23:30;;;;;;;0.20;0.20;;;;;;;14.91;72.42;100324.44;4937026;29;20027;-85
2021/07/26 00:26:06;;;;;;;0.20;0.20;;;;;;;14.85;72.79;100330.56;4927465;29;20108;-85
2021/07/26 00:28:33;;;;;;;0.10;0.10;;;;;;;14.76;73.94;100321.50;4886734;29;20065;-84
2021/07/26 00:31:04;;;;;;;0.10;0.10;;;;;;;14.66;74.46;100321.63;4921133;29;20074;-83
2021/07/26 00:34:08;;;;;;;0.20;0.20;;;;;;;14.60;74.23;100327.69;4934949;29;20052;-85
2021/07/26 00:37:02;;;;;;;0.10;0.10;;;;;;;14.54;74.65;100327.47;5063625;23;20050;-85
2021/07/26 00:39:34;;;;;;;0.20;0.20;;;;;;;14.53;74.71;100320.34;4963981;28;20039;-83
2021/07/26 00:42:01;;;;;;;0.20;0.20;;;;;;;14.54;75.02;100333.78;4966266;28;20541;-83
2021/07/26 00:44:29;;;;;;;0.20;0.20;;;;;;;14.51;75.50;100320.47;4959939;28;20053;-84
2021/07/26 00:46:57;;;;;;;0.10;0.10;;;;;;;14.43;75.43;100332.13;4992266;28;20054;-84
2021/07/26 00:49:25;;;;;;;0.20;0.20;;;;;;;14.40;74.95;100331.59;5215507;23;20046;-84
2021/07/26 00:51:55;;;;;;;0.10;0.10;;;;;;;14.42;75.17;100337.75;4971934;28;20077;-85
2021/07/26 00:54:28;;;;;;;0.10;0.10;;;;;;;14.33;75.46;100327.81;4958301;28;20061;-85
2021/07/26 00:56:58;;;;;;;0.20;0.20;;;;;;;14.34;75.54;100337.69;4939798;28;20303;-85
2021/07/26 00:59:26;;;;;;;0.17;0.17;;;;;;;14.33;75.59;100338.69;4923077;29;20138;-87
2021/07/26 01:01:53;;;;;;;0.20;0.20;;;;;;;14.29;75.81;100335.44;4948221;28;20289;-85
2021/07/26 01:04:19;;;;;;;0.10;0.10;;;;;;;14.30;75.36;100333.59;4950354;28;20077;-84
2021/07/26 01:06:46;;;;;;;0.20;0.20;;;;;;;14.28;74.92;100327.44;4970017;28;20539;-85
2021/07/26 01:09:14;;;;;;;0.20;0.20;;;;;;;14.33;75.57;100336.81;4934814;29;20145;-84
2021/07/26 01:11:43;;;;;;;0.13;0.13;;;;;;;14.33;75.12;100346.84;4949174;28;20053;-84
2021/07/26 01:14:12;;;;;;;0.20;0.20;;;;;;;14.31;75.04;100344.28;4935887;28;20039;-86
2021/07/26 01:16:39;;;;;;;0.20;0.20;;;;;;;14.34;74.92;100337.69;4916495;28;20046;-84
2021/07/26 01:19:05;;;;;;;0.10;0.10;;;;;;;14.34;74.74;100334.97;4966367;28;20257;-84
2021/07/26 01:21:31;;;;;;;0.20;0.20;;;;;;;14.35;75.05;100336.69;4951898;28;20053;-84
2021/07/26 01:23:59;;;;;;;0.10;0.10;;;;;;;14.35;75.09;100347.56;4951885;28;20066;-84
2021/07/26 01:26:26;;;;;;;0.10;0.10;;;;;;;14.34;74.98;100343.13;4939972;28;20042;-85
2021/07/26 01:28:56;;;;;;;0.20;0.20;;;;;;;14.32;74.92;100340.56;4927795;28;20074;-85
2021/07/26 01:31:23;;;;;;;0.20;0.20;;;;;;;14.32;75.12;100348.72;4937181;28;20051;-83
2021/07/26 01:33:50;;;;;;;0.10;0.10;;;;;;;14.29;75.36;100346.31;4950981;28;20089;-84
2021/07/26 01:36:17;;;;;;;0.10;0.10;;;;;;;14.30;75.14;100349.91;4965042;28;20045;-84
2021/07/26 01:38:45;;;;;;;0.20;0.20;;;;;;;14.28;75.22;100349.19;4966604;28;20126;-84
2021/07/26 01:41:19;;;;;;;0.20;0.20;;;;;;;14.29;75.26;100350.91;4931382;28;20019;-84
2021/07/26 01:46:55;;;;;;;0.20;0.20;;;;;;;14.28;75.24;100354.63;4964775;28;20043;-84
2021/07/26 01:49:28;;;;;;;0.20;0.20;;;;;;;14.30;74.86;100352.63;4918728;28;20057;-85
2021/07/26 01:51:55;;;;;;;0.20;0.20;;;;;;;14.27;75.31;100352.94;4966523;28;20043;-84
2021/07/26 01:54:22;;;;;;;0.20;0.20;;;;;;;14.27;74.99;100355.66;4967370;28;20149;-85
2021/07/26 01:56:49;;;;;;;0.15;0.15;;;;;;;14.24;74.67;100354.09;4945243;28;20105;-85
2021/07/26 01:59:15;;;;;;;0.20;0.20;;;;;;;14.23;74.97;100368.72;4931753;28;20491;-84
2021/07/26 02:01:41;;;;;;;0.20;0.20;;;;;;;14.20;75.09;100363.59;4933287;28;20091;-84
2021/07/26 02:04:07;;;;;;;0.20;0.20;;;;;;;14.20;75.02;100359.00;4946742;28;20081;-83
2021/07/26 02:06:35;;;;;;;0.20;0.20;;;;;;;14.22;74.60;100362.44;4935349;28;20034;-84
2021/07/26 02:09:01;;;;;;;0.20;0.20;;;;;;;14.21;74.17;100368.84;4930395;28;20051;-82
2021/07/26 02:11:28;;;;;;;0.20;0.20;;;;;;;14.22;74.42;100367.88;4966019;28;20061;-83
2021/07/26 02:13:54;;;;;;;0.15;0.15;;;;;;;14.16;75.13;100368.50;4964222;28;20038;-84
2021/07/26 02:16:21;;;;;;;0.20;0.20;;;;;;;14.16;74.91;100368.50;4953026;28;20133;-84
2021/07/26 02:18:48;;;;;;;0.20;0.20;;;;;;;14.19;75.25;100370.91;4976071;28;20042;-83
2021/07/26 02:21:15;;;;;;;0.20;0.20;;;;;;;14.21;74.87;100377.00;4955644;28;20043;-83
2021/07/26 02:23:41;;;;;;;0.10;0.10;;;;;;;14.22;75.08;100373.31;4939811;28;20050;-82
2021/07/26 02:26:08;;;;;;;0.20;0.20;;;;;;;14.23;74.50;100368.72;4953029;28;20049;-83
2021/07/26 02:28:34;;;;;;;0.20;0.20;;;;;;;14.23;74.64;100368.72;4932888;29;20039;-83
2021/07/26 02:31:00;;;;;;;0.20;0.20;;;;;;;14.31;74.62;100370.66;4959567;28;20069;-83
2021/07/26 02:33:28;;;;;;;0.20;0.20;;;;;;;14.33;74.04;100374.91;4983933;28;20049;-82
2021/07/26 02:35:54;;;;;;;0.20;0.20;;;;;;;14.28;73.56;100368.25;4951262;28;20161;-83
2021/07/26 02:38:21;;;;;;;0.20;0.20;;;;;;;14.44;72.99;100376.50;4920175;28;20202;-83
2021/07/26 02:40:48;;;;;;;0.20;0.20;;;;;;;14.47;72.53;100373.47;4933161;28;20042;-84
2021/07/26 02:43:15;;;;;;;0.13;0.13;;;;;;;14.54;72.83;100380.03;4937122;28;20050;-84
2021/07/26 02:45:42;;;;;;;0.20;0.20;;;;;;;14.57;71.85;100382.44;4936265;28;20047;-84
2021/07/26 02:48:10;;;;;;;0.20;0.20;;;;;;;14.61;71.89;100383.81;4953538;28;20095;-82
2021/07/26 02:50:37;;;;;;;0.20;0.20;;;;;;;14.62;71.66;100385.53;4952997;28;20055;-86
2021/07/26 02:53:04;;;;;;;0.20;0.20;;;;;;;14.61;71.94;100388.41;4951762;28;20054;-82
2021/07/26 02:55:31;;;;;;;0.20;0.20;;;;;;;14.62;71.63;100390.13;4935208;28;20058;-83
2021/07/26 02:57:58;;;;;;;0.20;0.20;;;;;;;14.66;71.41;100392.38;4949519;28;20066;-82
2021/07/26 03:00:28;;;;;;;0.20;0.20;;;;;;;14.67;71.83;100388.63;4973992;28;20043;-86
2021/07/26 03:03:10;;;;;;;0.20;0.20;;;;;;;14.67;72.20;100394.09;4933913;28;20045;-84
2021/07/26 03:05:37;;;;;;;0.10;0.10;;;;;;;14.72;71.97;100390.88;4924786;28;20034;-84
2021/07/26 03:08:12;;;;;;;0.20;0.20;;;;;;;14.73;71.01;100392.56;4940921;28;20066;-86
2021/07/26 03:10:50;;;;;;;0.10;0.10;;;;;;;14.81;70.88;100387.22;4958623;28;20065;-84
2021/07/26 03:16:15;;;;;;;0.20;0.20;;;;;;;14.92;71.05;100386.94;4943227;29;20532;-87
2021/07/26 03:18:53;;;;;;;0.20;0.20;;;;;;;14.96;71.38;100384.75;5062552;23;20054;-86
2021/07/26 03:21:23;;;;;;;0.20;0.20;;;;;;;14.90;70.04;100374.47;4956635;28;20039;-84
2021/07/26 03:23:52;;;;;;;0.20;0.20;;;;;;;15.02;69.91;100381.34;4960053;28;20094;-85
2021/07/26 03:26:20;;;;;;;0.20;0.20;;;;;;;15.09;69.73;100393.31;4957611;28;20038;-85
2021/07/26 03:31:28;;;;;;;0.20;0.20;;;;;;;15.28;68.84;100388.63;4948789;29;20694;-85
2021/07/26 03:34:02;;;;;;;0.20;0.20;;;;;;;15.32;69.14;100392.72;5033455;23;20068;-83
2021/07/26 03:36:32;;;;;;;0.20;0.20;;;;;;;15.39;68.93;100389.22;4976539;28;20033;-85
2021/07/26 03:38:58;;;;;;;0.20;0.20;;;;;;;15.43;69.10;100389.72;4980678;28;20029;-85
2021/07/26 03:41:26;;;;;;;0.20;0.20;;;;;;;15.53;68.45;100387.69;4976136;28;20086;-85
2021/07/26 03:43:54;;;;;;;0.20;0.20;;;;;;;15.58;68.30;100390.81;4974445;28;20046;-85
2021/07/26 03:46:24;;;;;;;0.20;0.20;;;;;;;15.64;68.21;100381.09;4978908;28;20057;-84
2021/07/26 03:48:52;;;;;;;0.20;0.20;;;;;;;15.79;67.77;100384.06;4953198;28;20106;-85
2021/07/26 03:51:27;;;;;;;0.20;0.20;;;;;;;15.81;67.66;100382.88;4942039;28;20050;-86
2021/07/26 03:54:00;;;;;;;0.20;0.20;;;;;;;15.86;67.79;100396.84;4989931;28;20053;-84
2021/07/26 03:56:43;;;;;;;0.20;0.20;;;;;;;15.96;67.47;100393.13;4947791;28;20062;-87
2021/07/26 03:59:25;;;;;;;0.20;0.20;;;;;;;15.91;67.39;100389.03;4969094;28;20619;-86
2021/07/26 04:02:01;;;;;;;0.20;0.20;;;;;;;16.02;67.25;100396.06;4963454;28;20042;-85
2021/07/26 04:04:38;;;;;;;0.30;0.30;;;;;;;16.09;66.47;100386.16;4975365;28;20042;-83
2021/07/26 04:07:12;;;;;;;0.20;0.20;;;;;;;16.27;65.69;100387.88;4951260;28;20070;-84
2021/07/26 04:09:47;;;;;;;0.20;0.20;;;;;;;16.46;64.92;100387.53;4946786;28;20047;-86
2021/07/26 04:12:25;;;;;;;0.20;0.20;;;;;;;16.51;64.88;100390.59;4967865;28;20105;-87
2021/07/26 04:14:55;;;;;;;0.30;0.30;;;;;;;16.92;63.82;100387.84;4965890;28;20162;-84
2021/07/26 04:17:23;;;;;;;0.30;0.30;;;;;;;17.38;62.33;100389.94;4980746;28;20042;-85
2021/07/26 04:19:50;;;;;;;0.30;0.30;;;;;;;17.95;60.79;100387.78;4961670;28;20038;-84
2021/07/26 04:22:22;;;;;;;0.30;0.30;;;;;;;18.34;59.36;100389.53;5286299;23;20165;-88
2021/07/26 04:24:54;;;;;;;0.30;0.30;;;;;;;18.85;58.66;100378.81;4998646;28;20030;-86
2021/07/26 04:30:24;;;;;;;0.30;0.30;;;;;;;19.62;55.02;100383.03;5840063;23;20077;-85
2021/07/26 04:33:09;;;;;;;0.30;0.30;;;;;;;19.77;54.10;100375.66;5615650;23;20021;31
2021/07/26 04:35:37;;;;;;;0.30;0.30;;;;;;;20.15;53.68;100386.44;5354213;23;20260;-86
2021/07/26 04:41:23;;;;;;;0.30;0.30;;;;;;;20.79;51.86;100375.38;5830470;23;20026;-86
2021/07/26 04:43:51;;;;;;;0.30;0.30;;;;;;;21.15;50.91;100368.88;4976950;28;20038;-87
2021/07/26 04:46:38;;;;;;;0.30;0.30;;;;;;;21.56;50.29;100376.28;5414587;23;20073;31
2021/07/26 05:24:09;;;;;;;0.40;0.40;;;;;;;25.74;40.62;100364.38;5496559;23;20037;-86
2021/07/26 05:26:42;;;;;;;0.40;0.40;;;;;;;25.94;40.62;100357.75;5410926;23;20062;-85
2021/07/26 05:29:32;;;;;;;0.40;0.40;;;;;;;26.24;40.12;100354.94;4963588;28;20073;-85
2021/07/26 05:50:51;;;;;;;;;;;;;;;28.82;34.39;100361.88;5866204;23;19910;-86
2021/07/26 07:48:35;;;;;;;1.40;1.40;;;;;;;35.82;21.30;100360.25;5090543;23;20054;-81
2021/07/26 07:51:02;;;;;;;0.40;0.40;;;;;;;36.07;20.80;100357.09;4942740;28;20086;-82
2021/07/26 07:53:28;;;;;;;0.98;0.98;;;;;;;35.69;20.29;100365.50;4966595;28;20041;-81
2021/07/26 07:55:55;;;;;;;0.57;0.57;;;;;;;35.79;20.51;100358.88;4953387;28;20026;-82
2021/07/26 07:58:21;;;;;;;0.43;0.43;;;;;;;33.99;22.05;100355.22;4946794;28;20042;-82
2021/07/26 08:00:52;;;;;;;0.20;0.20;;;;;;;32.95;22.79;100349.41;4938938;28;20039;-81
2021/07/26 08:03:20;;;;;;;0.10;0.10;;;;;;;32.11;23.71;100354.38;4950712;28;20415;-82
2021/07/26 08:05:52;;;;;;;0.28;0.28;;;;;;;31.69;23.67;100349.72;4963283;28;20576;-83
2021/07/26 08:08:20;;;;;;;0.30;0.30;;;;;;;32.67;22.91;100348.81;4963513;28;20043;-83
2021/07/26 08:10:48;;;;;;;0.50;0.50;;;;;;;33.94;21.61;100360.84;4957008;28;20034;-84
2021/07/26 08:13:19;;;;;;;0.20;0.20;;;;;;;34.45;21.24;100349.28;4944394;28;20050;-82
2021/07/26 08:15:52;;;;;;;0.20;0.20;;;;;;;34.24;21.27;100360.66;4942834;28;20039;-81
2021/07/26 08:18:20;;;;;;;0.22;0.22;;;;;;;34.45;21.41;100352.94;4955821;28;20047;-83
2021/07/26 08:20:47;;;;;;;1.25;1.25;;;;;;;34.96;21.04;100360.09;4940809;28;20127;-81
2021/07/26 08:23:13;;;;;;;0.52;0.52;;;;;;;34.78;21.73;100362.50;4944284;28;20049;-83
2021/07/26 08:25:40;;;;;;;0.90;0.90;;;;;;;35.50;20.59;100353.34;4947397;28;20049;-84
2021/07/26 08:28:07;;;;;;;1.20;1.20;;;;;;;36.56;19.82;100361.41;4981811;28;20090;-81
2021/07/26 08:30:35;;;;;;;1.25;1.25;;;;;;;36.50;19.21;100354.22;4961862;28;20142;-82
2021/07/26 08:33:03;;;;;;;1.00;1.00;;;;;;;37.56;18.85;100353.41;4917672;28;20437;-83
2021/07/26 08:35:31;;;;;;;1.10;1.10;;;;;;;37.53;17.90;100356.00;4951663;28;20077;-82
2021/07/26 08:37:58;;;;;;;0.80;0.80;;;;;;;36.94;18.84;100358.50;4964351;28;20499;-84
2021/07/26 08:40:28;;;;;;;0.30;0.30;;;;;;;34.78;20.97;100370.09;4981343;28;20225;-85
2021/07/26 08:42:56;;;;;;;0.20;0.20;;;;;;;33.94;21.75;100350.44;4910674;28;20102;-82
2021/07/26 08:45:23;;;;;;;0.10;0.10;;;;;;;33.50;22.32;100350.41;4966073;28;20050;-85
2021/07/26 08:47:50;;;;;;;0.10;0.10;;;;;;;32.22;23.33;100342.06;4968803;28;20085;-82
2021/07/26 08:53:51;;;;;;;0.10;0.10;;;;;;;30.99;25.04;100347.13;4801232;29;20078;-81
2021/07/26 08:56:53;;;;;;;0.10;0.10;;;;;;;31.05;25.67;100344.38;4863644;29;20064;-83
2021/07/26 08:59:20;;;;;;;0.10;0.10;;;;;;;30.85;25.90;100333.91;4957414;28;20093;-84
2021/07/26 09:02:04;;;;;;;0.10;0.10;;;;;;;30.85;25.94;100343.13;4983817;28;20058;-82
2021/07/26 09:04:31;;;;;;;0.10;0.10;;;;;;;30.48;26.14;100341.13;4965287;28;20065;-84
2021/07/26 09:07:07;;;;;;;0.10;0.10;;;;;;;29.49;27.92;100338.63;4935449;28;20106;-83
2021/07/26 09:09:49;;;;;;;0.10;0.10;;;;;;;29.11;28.41;100331.13;4949009;28;20035;-81
2021/07/26 09:12:31;;;;;;;0.20;0.20;;;;;;;29.00;28.91;100331.03;4946205;28;20030;-83
2021/07/26 09:15:00;;;;;;;0.10;0.10;;;;;;;29.41;28.46;100320.44;4963135;28;20046;-82
2021/07/26 09:17:40;;;;;;;0.20;0.20;;;;;;;29.35;27.85;100326.19;4978676;28;20097;-83
2021/07/26 09:20:07;;;;;;;0.17;0.17;;;;;;;29.70;27.98;100326.66;4964121;28;20047;-81
2021/07/26 09:22:39;;;;;;;0.10;0.10;;;;;;;29.86;27.33;100330.44;4932123;28;20087;-83
2021/07/26 09:25:26;;;;;;;0.10;0.10;;;;;;;30.35;27.32;100324.84;4942720;28;20049;-83
2021/07/26 09:27:57;;;;;;;0.10;0.10;;;;;;;30.22;26.74;100325.28;4970644;28;20065;-82
2021/07/26 09:30:31;;;;;;;0.15;0.15;;;;;;;30.34;26.78;100328.72;4962015;28;20089;-84
2021/07/26 09:33:17;;;;;;;0.10;0.10;;;;;;;30.44;27.00;100331.59;4977272;28;20026;-83
2021/07/26 09:35:46;;;;;;;0.10;0.10;;;;;;;30.37;27.10;100328.19;4955493;28;20628;-83
2021/07/26 09:38:16;;;;;;;0.10;0.10;;;;;;;30.38;26.53;100321.50;4934850;28;20440;-84
2021/07/26 09:40:49;;;;;;;0.10;0.10;;;;;;;30.36;26.47;100320.94;4956078;28;20167;-82
2021/07/26 09:43:24;;;;;;;0.10;0.10;;;;;;;30.26;26.49;100326.41;4939235;28;20038;-84
2021/07/26 09:45:58;;;;;;;0.40;0.40;;;;;;;31.11;25.60;100320.94;4975981;28;20079;-84
2021/07/26 09:48:32;;;;;;;0.20;0.20;;;;;;;31.44;25.23;100309.38;4949402;28;20047;-81
2021/07/26 09:51:03;;;;;;;0.20;0.20;;;;;;;31.39;25.30;100314.97;4964311;28;20407;-85
2021/07/26 09:53:51;;;;;;;0.20;0.20;;;;;;;31.46;25.12;100311.91;4934130;28;20050;-85
2021/07/26 09:56:18;;;;;;;0.17;0.17;;;;;;;31.57;24.99;100310.00;4962750;28;20083;-82
2021/07/26 09:58:46;;;;;;;0.20;0.20;;;;;;;31.41;24.59;100315.53;4931026;28;20093;-83
2021/07/26 10:01:13;;;;;;;0.20;0.20;;;;;;;31.79;24.20;100313.41;4976649;28;20050;-81
2021/07/26 10:03:41;;;;;;;0.20;0.20;;;;;;;32.05;24.54;100305.09;4942862;28;20066;-83
2021/07/26 10:06:10;;;;;;;0.20;0.20;;;;;;;31.88;23.64;100308.97;4977527;28;20041;-82
2021/07/26 10:08:37;;;;;;;0.20;0.20;;;;;;;31.66;24.39;100305.53;4963432;28;20039;-77
2021/07/26 10:11:03;;;;;;;0.20;0.20;;;;;;;31.86;23.66;100300.03;4972674;28;20053;-80
2021/07/26 10:13:29;;;;;;;0.20;0.20;;;;;;;32.01;23.62;100301.19;4956772;28;20039;-79
2021/07/26 10:15:56;;;;;;;0.20;0.20;;;;;;;32.12;23.77;100297.28;4953483;28;20535;-79
2021/07/26 10:18:22;;;;;;;0.20;0.20;;;;;;;32.16;23.67;100292.81;4955032;28;20054;-79
2021/07/26 10:21:03;;;;;;;0.20;0.20;;;;;;;31.76;24.27;100300.00;4974452;28;20054;-79
2021/07/26 10:23:38;;;;;;;0.20;0.20;;;;;;;31.67;23.73;100296.06;4905979;28;20062;-77
2021/07/26 10:26:06;;;;;;;0.20;0.20;;;;;;;31.99;24.20;100297.81;4968365;28;20056;-79
2021/07/26 10:28:42;;;;;;;0.30;0.30;;;;;;;31.83;25.02;100297.75;4935983;28;20038;-81
2021/07/26 10:31:34;;;;;;;0.40;0.40;;;;;;;31.58;24.68;100292.94;4919996;28;20039;-78
2021/07/26 10:34:19;;;;;;;0.63;0.63;;;;;;;33.35;22.68;100292.38;4967481;28;20043;-78
2021/07/26 10:36:47;;;;;;;1.10;1.10;;;;;;;34.68;21.65;100286.75;4956753;28;20042;-81
2021/07/26 10:39:16;;;;;;;0.35;0.35;;;;;;;35.17;19.97;100288.47;4954682;28;20079;-78
2021/07/26 10:41:42;;;;;;;0.47;0.47;;;;;;;35.10;20.33;100290.81;4938566;28;20078;-81
2021/07/26 10:44:11;;;;;;;0.40;0.40;;;;;;;35.36;20.02;100279.25;4957424;28;20066;-79
2021/07/26 10:47:07;;;;;;;0.90;0.90;;;;;;;36.45;18.95;100289.47;4939534;28;20084;-82
2021/07/26 10:49:43;;;;;;;0.20;0.20;;;;;;;36.09;19.06;100292.91;4951967;28;20143;-81
2021/07/26 10:52:33;;;;;;;0.20;0.20;;;;;;;36.29;18.65;100276.81;4914242;28;20075;-82
2021/07/26 10:55:02;;;;;;;0.85;0.85;;;;;;;36.30;18.90;100281.28;4961579;28;20441;-80
2021/07/26 10:57:43;;;;;;;0.38;0.25;;;;;;;35.41;19.98;100287.63;4953908;28;20030;-80
2021/07/26 11:00:15;;;;;;;0.20;0.20;;;;;;;35.40;20.47;100288.78;4935822;28;20042;-80
2021/07/26 11:02:44;;;;;;;0.20;0.20;;;;;;;34.68;20.36;100283.94;4969529;28;20522;-79
2021/07/26 11:05:25;;;;;;;0.30;0.30;;;;;;;34.70;20.34;100290.09;4936432;28;20035;-80
2021/07/26 11:08:13;;;;;;;0.20;0.20;;;;;;;34.58;20.03;100286.84;4952929;28;20735;-79
2021/07/26 11:11:12;;;;;;;0.20;0.20;;;;;;;34.45;20.32;100281.91;4971475;28;20066;-78
2021/07/26 11:13:45;;;;;;;0.10;0.10;;;;;;;33.01;22.77;100281.84;4972459;28;20519;-79
2021/07/26 11:16:14;;;;;;;0.20;0.20;;;;;;;32.44;22.30;100273.81;4935102;28;20568;-79
2021/07/26 11:18:45;;;;;;;0.30;0.30;;;;;;;32.28;22.97;100268.19;4941925;28;20086;-79
2021/07/26 11:21:12;;;;;;;0.30;0.30;;;;;;;32.92;22.10;100271.50;4956253;28;20039;-79
2021/07/26 11:23:52;;;;;;;0.43;0.43;;;;;;;34.09;21.22;100268.16;4957085;28;20057;-79
2021/07/26 11:26:27;;;;;;;0.40;0.40;;;;;;;34.28;20.88;100268.28;4938341;28;20102;-79
2021/07/26 11:28:56;;;;;;;0.20;0.20;;;;;;;34.55;20.93;100260.19;4936328;28;20081;-80
2021/07/26 11:31:25;;;;;;;0.10;0.10;;;;;;;33.36;22.25;100261.25;4972671;28;20039;-79
2021/07/26 11:34:14;;;;;;;0.10;0.10;;;;;;;33.66;21.73;100253.00;4970392;28;20492;-80
2021/07/26 11:37:04;;;;;;;0.28;0.28;;;;;;;33.30;22.48;100265.19;4959205;28;20237;-79
2021/07/26 11:39:56;;;;;;;1.00;1.00;;;;;;;34.71;20.53;100260.88;4952487;28;20042;-82
2021/07/26 11:42:30;;;;;;;0.93;0.93;;;;;;;36.08;19.47;100253.78;4938092;28;20077;-80
2021/07/26 11:44:57;;;;;;;0.10;0.10;;;;;;;34.87;20.42;100249.47;4951741;28;20053;-80
2021/07/26 11:47:33;;;;;;;0.75;0.75;;;;;;;35.15;20.19;100251.41;4954348;28;20471;-81
2021/07/26 11:50:01;;;;;;;1.13;1.13;;;;;;;36.33;19.06;100246.88;4902415;28;20110;-79
2021/07/26 11:52:27;;;;;;;1.02;1.02;;;;;;;37.59;17.94;100245.53;4935480;28;20102;-79
2021/07/26 11:54:53;;;;;;;0.60;0.60;;;;;;;37.49;17.91;100240.13;4971850;28;20133;-79
2021/07/26 11:57:20;;;;;;;0.28;0.28;;;;;;;36.69;18.66;100245.09;4952783;28;20129;-77
2021/07/26 11:59:53;;;;;;;0.20;0.20;;;;;;;34.53;20.98;100236.34;4969545;28;20102;-78
2021/07/26 12:02:31;;;;;;;0.60;0.60;;;;;;;34.71;20.47;100244.03;4970660;28;20047;-78
2021/07/26 12:05:24;;;;;;;0.10;0.10;;;;;;;34.73;20.47;100236.13;4948427;28;20054;-78
2021/07/26 12:08:11;;;;;;;0.22;0.22;;;;;;;34.66;20.84;100235.63;4947962;28;20157;-77
2021/07/26 12:10:46;;;;;;;0.20;0.20;;;;;;;34.58;21.27;100230.66;4967210;28;20638;-79
2021/07/26 12:13:15;;;;;;;0.10;0.10;;;;;;;33.47;22.38;100224.78;4949988;28;20046;-79
2021/07/26 12:15:42;;;;;;;0.10;0.10;;;;;;;32.80;22.84;100230.63;4952195;28;20205;-77
2021/07/26 12:18:14;;;;;;;0.70;0.70;;;;;;;33.03;22.41;100222.75;4933864;28;20039;-77
2021/07/26 12:20:43;;;;;;;0.30;0.30;;;;;;;33.97;21.33;100225.53;4951345;28;20047;-80
2021/07/26 12:23:24;;;;;;;0.30;0.30;;;;;;;33.69;22.05;100214.00;4964688;28;20049;-79
2021/07/26 12:25:51;;;;;;;0.10;0.10;;;;;;;33.40;22.67;100218.63;4920214;28;20054;-77
2021/07/26 12:28:19;;;;;;;0.10;0.10;;;;;;;32.75;23.69;100213.00;4968098;28;20031;-77
2021/07/26 12:30:47;;;;;;;0.10;0.10;;;;;;;31.92;24.73;100209.44;4952946;28;20034;-77
2021/07/26 12:33:31;;;;;;;0.10;0.10;;;;;;;31.93;24.20;100221.47;4933734;28;20061;-78
2021/07/26 12:36:13;;;;;;;0.30;0.30;;;;;;;33.11;22.74;100213.72;4938848;28;20129;-80
2021/07/26 12:39:04;;;;;;;0.20;0.20;;;;;;;33.59;22.18;100219.66;4934224;28;20039;-78
2021/07/26 12:41:31;;;;;;;0.10;0.10;;;;;;;32.71;23.02;100218.31;4952604;28;20047;-78
2021/07/26 12:44:20;;;;;;;0.10;0.10;;;;;;;32.28;23.85;100211.38;4950020;28;20050;-77
2021/07/26 12:46:49;;;;;;;0.10;0.10;;;;;;;32.44;24.27;100209.44;4943063;28;20051;-77
2021/07/26 12:49:27;;;;;;;0.10;0.10;;;;;;;32.21;23.97;100199.63;4966826;28;20039;-76
2021/07/26 12:51:55;;;;;;;0.10;0.10;;;;;;;31.20;25.15;100199.19;4950835;28;20442;-76
2021/07/26 12:54:21;;;;;;;0.10;0.10;;;;;;;31.22;25.01;100194.16;4951650;28;20460;-78
2021/07/26 12:56:47;;;;;;;0.10;0.10;;;;;;;31.52;25.15;100198.16;4936051;28;20660;-79
2021/07/26 12:59:13;;;;;;;0.10;0.10;;;;;;;30.86;25.70;100196.81;4935916;28;20039;-77
2021/07/26 13:02:12;;;;;;;0.10;0.10;;;;;;;30.54;26.08;100188.53;4956442;28;20043;-75
2021/07/26 13:04:44;;;;;;;0.10;0.10;;;;;;;30.11;26.47;100190.44;4941632;23;20059;-76
2021/07/26 13:08:11;;;;;;;0.10;0.10;;;;;;;29.96;26.82;100193.94;4909603;29;20051;-77
2021/07/26 13:11:15;;;;;;;0.10;0.10;;;;;;;29.71;27.37;100185.34;4838403;29;21417;-78
2021/07/26 13:13:41;;;;;;;0.10;0.10;;;;;;;29.33;28.05;100189.97;4844423;29;20142;-76
2021/07/26 13:16:08;;;;;;;0.05;0.05;;;;;;;29.58;27.82;100191.31;4897310;29;20122;-78
2021/07/26 13:18:34;;;;;;;0.10;0.10;;;;;;;29.69;27.94;100181.97;4926658;29;20044;-77
2021/07/26 13:21:00;;;;;;;0.10;0.10;;;;;;;29.48;27.52;100187.34;4916281;29;20054;-78
2021/07/26 13:23:25;;;;;;;0.10;0.10;;;;;;;29.26;28.18;100183.75;4932296;29;20083;-77
2021/07/26 13:25:51;;;;;;;0.10;0.10;;;;;;;29.00;28.83;100175.09;4928427;29;20039;-77
2021/07/26 13:28:17;;;;;;;0.10;0.10;;;;;;;28.96;29.13;100184.19;4912888;29;20521;-78
2021/07/26 13:30:43;;;;;;;0.10;0.10;;;;;;;29.12;28.48;100174.13;4923401;29;20048;-78
2021/07/26 13:33:09;;;;;;;0.10;0.10;;;;;;;29.16;29.01;100175.28;4902696;29;20051;-78
2021/07/26 13:35:36;;;;;;;0.10;0.10;;;;;;;29.41;28.59;100186.69;4897765;29;20046;-77
2021/07/26 13:38:03;;;;;;;0.10;0.10;;;;;;;29.27;28.85;100168.72;4924038;29;20079;-80
2021/07/26 13:40:29;;;;;;;0.13;0.13;;;;;;;29.04;28.45;100165.13;4915105;29;24384;-78
2021/07/26 13:42:55;;;;;;;0.10;0.10;;;;;;;29.20;29.24;100173.66;4926910;29;20047;-78
2021/07/26 13:45:21;;;;;;;0.10;0.10;;;;;;;29.02;29.61;100167.31;4858117;29;20032;-76
2021/07/26 13:47:49;;;;;;;0.05;0.05;;;;;;;29.00;29.19;100163.97;4925033;29;20051;-77
2021/07/26 13:50:16;;;;;;;0.10;0.10;;;;;;;28.86;29.32;100151.50;4881844;29;20046;-76
2021/07/26 13:52:42;;;;;;;0.10;0.10;;;;;;;28.55;29.39;100162.22;4924188;29;20055;-76
2021/07/26 13:55:08;;;;;;;0.10;0.10;;;;;;;28.47;29.76;100153.50;4912239;29;20039;-76
2021/07/26 13:57:34;;;;;;;0.00;0.00;;;;;;;28.51;29.54;100154.66;4921783;29;20420;-77
2021/07/26 14:00:00;;;;;;;0.10;0.10;;;;;;;28.52;29.46;100160.00;4921218;29;20260;-78
2021/07/26 14:02:26;;;;;;;0.10;0.10;;;;;;;28.63;29.49;100160.97;4907117;29;20054;-78
2021/07/26 14:04:52;;;;;;;0.10;0.10;;;;;;;28.95;28.90;100152.72;4913972;29;20489;-77
2021/07/26 14:07:19;;;;;;;0.10;0.10;;;;;;;28.80;29.81;100158.94;4926920;29;20058;-77
2021/07/26 14:09:45;;;;;;;0.10;0.10;;;;;;;28.68;29.40;100154.63;4901785;29;20032;-77
2021/07/26 14:12:14;;;;;;;0.10;0.10;;;;;;;28.47;29.79;100148.78;4924112;29;20094;-78
2021/07/26 14:14:40;;;;;;;0.10;0.10;;;;;;;28.40;30.02;100159.25;4905530;29;20097;-79
2021/07/26 14:17:08;;;;;;;0.10;0.10;;;;;;;28.47;30.42;100151.56;4921959;29;20047;-77
2021/07/26 14:19:34;;;;;;;0.10;0.10;;;;;;;28.42;30.53;100151.50;4929849;29;20031;-77
2021/07/26 14:22:01;;;;;;;0.10;0.10;;;;;;;28.45;30.79;100147.34;4920974;29;20647;-78
2021/07/26 14:24:27;;;;;;;0.10;0.10;;;;;;;28.58;30.20;100147.81;4920857;29;20122;-75
2021/07/26 14:26:53;;;;;;;0.10;0.10;;;;;;;28.61;29.94;100149.25;4912132;29;20154;-75
2021/07/26 14:29:20;;;;;;;0.10;0.10;;;;;;;28.82;29.95;100144.78;4916590;29;20042;-76
2021/07/26 14:31:47;;;;;;;0.10;0.10;;;;;;;28.94;29.33;100142.69;4888192;29;20051;-79
2021/07/26 14:34:13;;;;;;;0.10;0.10;;;;;;;28.87;29.96;100147.63;4912405;29;20099;-76
2021/07/26 14:36:39;;;;;;;0.10;0.10;;;;;;;28.57;30.27;100148.91;4926422;29;20039;-77
2021/07/26 14:39:04;;;;;;;0.10;0.10;;;;;;;28.31;30.22;100149.63;4926000;29;20139;-78
2021/07/26 14:41:30;;;;;;;0.10;0.10;;;;;;;28.32;30.05;100145.75;4923580;29;20054;-76
2021/07/26 14:43:56;;;;;;;0.10;0.10;;;;;;;28.22;30.36;100140.03;4924541;29;20393;-78
2021/07/26 14:46:22;;;;;;;0.10;0.10;;;;;;;28.07;31.15;100144.28;4925152;29;20086;-78
2021/07/26 14:48:48;;;;;;;0.10;0.10;;;;;;;27.98;30.76;100144.97;4907648;29;20070;-76
2021/07/26 14:51:14;;;;;;;0.10;0.10;;;;;;;27.98;31.04;100140.25;4925227;29;20118;-78
2021/07/26 14:53:40;;;;;;;0.10;0.10;;;;;;;27.88;31.16;100134.53;4921931;29;20043;-79